createdAt,value
2023-03-30T00:01:12.197Z,67.29
2023-03-30T00:03:39.862Z,69.09
2023-03-30T00:06:07.571Z,69.90
2023-03-30T00:08:35.461Z,71.41
2023-03-30T00:11:11.938Z,72.61
2023-03-30T00:13:39.704Z,70.52
2023-03-30T00:16:11.097Z,72.79
2023-03-30T00:18:39.527Z,73.17
2023-03-30T00:21:10.068Z,71.66
2023-03-30T00:23:39.059Z,71.47
2023-03-30T00:26:07.501Z,71.60
2023-03-30T00:28:35.051Z,73.54
2023-03-30T00:31:02.917Z,73.89
2023-03-30T00:33:41.181Z,73.87
2023-03-30T00:36:12.095Z,70.09
2023-03-30T00:38:39.231Z,71.93
2023-03-30T00:41:07.254Z,74.18
2023-03-30T00:43:34.863Z,74.14
2023-03-30T00:46:02.276Z,73.57
2023-03-30T00:48:34.741Z,71.53
2023-03-30T00:51:12.344Z,69.48
2023-03-30T00:53:43.397Z,68.95
2023-03-30T00:56:14.991Z,69.06
2023-03-30T00:58:44.827Z,70.19
2023-03-30T01:01:15.789Z,71.51
2023-03-30T01:03:50.836Z,71.92
2023-03-30T01:06:30.101Z,72.67
2023-03-30T01:08:58.415Z,72.44
2023-03-30T01:11:26.809Z,74.68
2023-03-30T01:14:06.069Z,70.83
2023-03-30T01:17:26.656Z,69.97
2023-03-30T01:20:55.070Z,69.97
2023-03-30T01:23:48.676Z,70.86
2023-03-30T01:26:28.025Z,70.95
2023-03-30T01:29:24.112Z,72.03
2023-03-30T01:32:10.946Z,71.49
2023-03-30T01:35:18.416Z,71.43
2023-03-30T01:38:01.169Z,72.45
2023-03-30T01:40:43.121Z,71.37
2023-03-30T01:43:27.272Z,71.60
2023-03-30T01:46:14.115Z,71.50
2023-03-30T01:48:47.871Z,71.86
2023-03-30T01:51:33.729Z,71.77
2023-03-30T01:54:12.833Z,71.73
2023-03-30T01:56:48.688Z,72.23
2023-03-30T01:59:25.794Z,73.67
2023-03-30T02:02:02.693Z,72.04
2023-03-30T02:04:38.886Z,72.49
2023-03-30T02:07:16.662Z,72.03
2023-03-30T02:09:46.666Z,73.32
2023-03-30T02:12:14.917Z,72.54
2023-03-30T02:14:43.876Z,73.02
2023-03-30T02:17:18.273Z,72.12
2023-03-30T02:19:47.611Z,71.88
2023-03-30T02:22:18.572Z,71.59
2023-03-30T02:24:49.523Z,71.82
2023-03-30T02:27:18.561Z,71.19
2023-03-30T02:29:47.083Z,73.68
2023-03-30T02:32:42.478Z,71.11
2023-03-30T02:35:37.507Z,71.14
2023-03-30T02:38:41.068Z,71.81
2023-03-30T02:41:45.692Z,73.35
2023-03-30T02:44:18.660Z,72.50
2023-03-30T02:47:02.433Z,72.85
2023-03-30T02:49:44.587Z,73.15
2023-03-30T02:52:41.610Z,73.00
2023-03-30T02:55:37.203Z,74.59
2023-03-30T02:58:52.154Z,73.59
2023-03-30T03:01:29.180Z,73.12
2023-03-30T03:04:04.955Z,73.17
2023-03-30T03:06:40.705Z,73.44
2023-03-30T03:09:09.103Z,73.97
2023-03-30T03:11:36.541Z,73.84
2023-03-30T03:14:04.628Z,73.50
2023-03-30T03:16:34.194Z,75.77
2023-03-30T03:19:19.425Z,73.94
2023-03-30T03:21:49.797Z,74.03
2023-03-30T03:24:20.232Z,73.97
2023-03-30T03:27:06.780Z,73.98
2023-03-30T03:29:47.614Z,73.77
2023-03-30T03:32:16.078Z,73.74
2023-03-30T03:34:46.524Z,72.69
2023-03-30T03:37:14.690Z,73.36
2023-03-30T03:39:43.486Z,75.30
2023-03-30T03:42:12.807Z,77.03
2023-03-30T03:44:49.254Z,78.13
2023-03-30T03:47:16.860Z,75.05
2023-03-30T03:49:45.527Z,75.16
2023-03-30T03:52:13.012Z,78.27
2023-03-30T03:54:40.279Z,79.85
2023-03-30T03:57:07.927Z,78.58
2023-03-30T03:59:35.110Z,78.08
2023-03-30T04:02:02.429Z,79.58
2023-03-30T04:04:29.780Z,78.11
2023-03-30T04:06:57.129Z,78.30
2023-03-30T04:09:24.878Z,75.01
2023-03-30T04:12:10.849Z,76.84
2023-03-30T04:14:54.281Z,73.90
2023-03-30T04:17:50.000Z,73.88
2023-03-30T04:20:43.519Z,77.24
2023-03-30T04:23:22.526Z,73.42
2023-03-30T04:26:28.649Z,73.21
2023-03-30T04:29:10.287Z,73.05
2023-03-30T04:31:56.739Z,77.96
2023-03-30T04:34:37.821Z,76.23
2023-03-30T04:37:30.282Z,80.75
2023-03-30T04:40:16.318Z,76.09
2023-03-30T04:43:03.951Z,78.50
2023-03-30T04:45:40.162Z,75.49
2023-03-30T04:48:36.879Z,73.68
2023-03-30T04:51:23.374Z,72.23
2023-03-30T04:54:09.451Z,71.08
2023-03-30T04:57:05.953Z,72.15
2023-03-30T04:59:47.710Z,70.90
2023-03-30T05:02:47.396Z,70.68
2023-03-30T05:05:43.710Z,76.47
2023-03-30T05:08:16.747Z,75.54
2023-03-30T05:10:44.108Z,75.31
2023-03-30T05:13:47.525Z,75.29
2023-03-30T05:16:28.439Z,70.37
2023-03-30T05:19:34.192Z,73.20
2023-03-30T05:22:21.489Z,71.57
2023-03-30T05:25:12.889Z,69.01
2023-03-30T05:27:51.708Z,67.94
2023-03-30T05:30:46.764Z,66.89
2023-03-30T05:33:49.598Z,66.12
2023-03-30T05:36:32.049Z,65.09
2023-03-30T05:39:18.131Z,72.82
2023-03-30T05:42:03.962Z,66.47
2023-03-30T05:44:40.438Z,69.55
2023-03-30T05:47:26.274Z,69.08
2023-03-30T05:50:10.067Z,64.64
2023-03-30T05:52:59.445Z,62.51
2023-03-30T05:56:07.302Z,58.41
2023-03-30T05:58:53.221Z,54.65
2023-03-30T06:01:40.060Z,52.54
2023-03-30T06:04:08.624Z,48.06
2023-03-30T06:06:37.067Z,45.83
2023-03-30T06:09:05.410Z,47.54
2023-03-30T06:11:34.439Z,50.27
2023-03-30T06:14:10.737Z,54.04
2023-03-30T06:16:39.671Z,57.79
2023-03-30T06:19:08.033Z,57.64
2023-03-30T06:21:35.421Z,57.62
2023-03-30T06:24:11.797Z,58.25
2023-03-30T06:26:41.289Z,57.80
2023-03-30T06:29:08.706Z,58.21
2023-03-30T06:31:36.804Z,56.23
2023-03-30T06:34:29.950Z,55.77
2023-03-30T06:36:58.214Z,54.51
2023-03-30T06:39:25.857Z,53.86
2023-03-30T06:41:53.293Z,53.03
2023-03-30T06:44:34.343Z,53.80
2023-03-30T06:47:06.148Z,54.16
2023-03-30T06:49:33.657Z,53.44
2023-03-30T06:52:19.531Z,54.36
2023-03-30T06:54:46.880Z,53.26
2023-03-30T06:57:14.771Z,52.60
2023-03-30T06:59:42.084Z,52.80
2023-03-30T07:02:21.944Z,53.16
2023-03-30T07:05:25.844Z,54.12
2023-03-30T07:07:59.675Z,54.14
2023-03-30T07:10:27.298Z,55.22
2023-03-30T07:12:56.613Z,55.48
2023-03-30T07:15:24.518Z,54.40
2023-03-30T07:17:52.078Z,53.72
2023-03-30T07:20:20.521Z,53.17
2023-03-30T07:23:03.211Z,52.72
2023-03-30T07:25:31.624Z,53.64
2023-03-30T07:28:04.507Z,52.62
2023-03-30T07:30:32.956Z,51.17
2023-03-30T07:33:05.023Z,50.10
2023-03-30T07:35:32.679Z,47.57
2023-03-30T07:38:04.164Z,43.32
2023-03-30T07:40:38.383Z,36.64
2023-03-30T07:43:07.327Z,37.70
2023-03-30T07:45:35.006Z,37.58
2023-03-30T07:48:03.278Z,37.95
2023-03-30T07:50:30.956Z,39.12
2023-03-30T07:53:01.613Z,39.96
2023-03-30T07:55:28.915Z,41.51
2023-03-30T07:58:03.896Z,41.03
2023-03-30T08:00:32.573Z,39.82
2023-03-30T08:03:22.207Z,39.87
2023-03-30T08:06:00.838Z,37.43
2023-03-30T08:08:35.377Z,38.34
2023-03-30T08:11:03.065Z,42.02
2023-03-30T08:13:31.758Z,43.50
2023-03-30T08:15:59.281Z,42.52
2023-03-30T08:18:28.960Z,44.30
2023-03-30T08:20:56.691Z,44.28
2023-03-30T08:23:24.192Z,43.25
2023-03-30T08:25:52.998Z,44.37
2023-03-30T08:28:21.368Z,42.10
2023-03-30T08:30:48.872Z,43.08
2023-03-30T08:33:16.619Z,45.49
2023-03-30T08:35:51.122Z,45.87
2023-03-30T08:38:19.326Z,46.89
2023-03-30T08:40:51.066Z,48.58
2023-03-30T08:43:32.136Z,50.46
2023-03-30T08:46:03.433Z,52.02
2023-03-30T08:48:37.657Z,50.54
2023-03-30T08:51:24.846Z,50.69
2023-03-30T08:54:19.618Z,49.73
2023-03-30T08:57:23.877Z,46.96
2023-03-30T09:00:48.120Z,40.55
2023-03-30T09:03:45.509Z,37.97
2023-03-30T09:06:46.675Z,39.15
2023-03-30T09:09:19.292Z,37.99
2023-03-30T09:11:54.031Z,37.72
2023-03-30T09:14:35.646Z,39.47
2023-03-30T09:17:21.220Z,39.69
2023-03-30T09:19:57.328Z,41.96
2023-03-30T09:22:35.597Z,41.49
2023-03-30T09:25:03.006Z,42.35
2023-03-30T09:27:56.360Z,40.49
2023-03-30T09:30:49.770Z,38.27
2023-03-30T09:33:32.619Z,39.24
2023-03-30T09:36:14.991Z,40.30
2023-03-30T09:38:44.811Z,39.32
2023-03-30T09:41:36.600Z,40.72
2023-03-30T09:44:04.290Z,43.50
2023-03-30T09:46:39.040Z,45.20
2023-03-30T09:49:15.964Z,44.04
2023-03-30T09:52:06.314Z,43.40
2023-03-30T09:54:41.697Z,38.34
2023-03-30T09:57:30.193Z,32.18
2023-03-30T10:00:00.634Z,30.25
2023-03-30T10:02:31.582Z,31.09
2023-03-30T10:05:04.424Z,29.85
2023-03-30T10:07:39.688Z,30.88
2023-03-30T10:10:20.854Z,30.24
2023-03-30T10:12:54.360Z,30.03
2023-03-30T10:15:27.782Z,30.70
2023-03-30T10:17:56.609Z,28.92
2023-03-30T10:20:36.333Z,28.02
2023-03-30T10:23:13.924Z,26.93
2023-03-30T10:25:43.152Z,28.95
2023-03-30T10:28:57.372Z,32.42
2023-03-30T10:31:28.026Z,34.43
2023-03-30T10:33:59.589Z,34.35
2023-03-30T10:36:38.721Z,33.13
2023-03-30T10:39:25.839Z,32.24
2023-03-30T10:41:54.385Z,34.05
2023-03-30T10:44:43.113Z,35.06
2023-03-30T10:48:31.186Z,34.58
2023-03-30T10:51:33.453Z,31.55
2023-03-30T10:54:33.902Z,30.86
2023-03-30T10:57:18.167Z,31.04
2023-03-30T11:00:13.035Z,31.53
2023-03-30T11:03:03.464Z,31.01
2023-03-30T11:05:42.661Z,31.83
2023-03-30T11:08:38.013Z,29.97
2023-03-30T11:11:07.244Z,29.69
2023-03-30T11:13:43.053Z,30.50
2023-03-30T11:16:39.168Z,31.13
2023-03-30T11:19:43.975Z,30.94
2023-03-30T11:22:33.543Z,29.27
2023-03-30T11:25:03.330Z,29.72
2023-03-30T11:27:48.478Z,29.10
2023-03-30T11:30:37.267Z,30.07
2023-03-30T11:33:57.779Z,30.14
2023-03-30T11:36:44.217Z,29.53
2023-03-30T11:39:31.112Z,30.26
2023-03-30T11:42:17.656Z,29.63
2023-03-30T11:44:45.444Z,31.79
2023-03-30T11:47:59.377Z,33.66
2023-03-30T11:51:17.048Z,36.08
2023-03-30T11:54:22.109Z,37.60
2023-03-30T11:57:20.422Z,39.64
2023-03-30T12:00:11.776Z,41.00
2023-03-30T12:02:57.509Z,41.46
2023-03-30T12:05:44.601Z,44.64
2023-03-30T12:08:23.378Z,45.13
2023-03-30T12:11:27.442Z,46.24
2023-03-30T12:13:55.232Z,45.57
2023-03-30T12:16:46.863Z,46.43
2023-03-30T12:19:52.991Z,45.91
2023-03-30T12:23:02.811Z,47.57
2023-03-30T12:25:55.456Z,47.16
2023-03-30T12:28:35.786Z,48.43
2023-03-30T12:31:15.784Z,48.92
2023-03-30T12:33:52.317Z,49.52
2023-03-30T12:36:43.233Z,48.64
2023-03-30T12:39:45.094Z,49.85
2023-03-30T12:42:35.557Z,50.52
2023-03-30T12:45:24.599Z,53.35
2023-03-30T12:48:32.716Z,52.95
2023-03-30T12:51:42.441Z,53.39
2023-03-30T12:54:33.898Z,53.23
2023-03-30T12:57:22.646Z,53.46
2023-03-30T13:00:23.744Z,55.50
2023-03-30T13:03:22.906Z,54.06
2023-03-30T13:05:54.382Z,55.02
2023-03-30T13:08:42.428Z,55.84
2023-03-30T13:11:18.569Z,57.32
2023-03-30T13:13:59.087Z,56.76
2023-03-30T13:16:51.377Z,56.33
2023-03-30T13:19:33.827Z,55.90
2023-03-30T13:22:13.431Z,58.52
2023-03-30T13:24:46.751Z,58.46
2023-03-30T13:27:19.881Z,58.51
2023-03-30T13:30:10.225Z,59.15
2023-03-30T13:32:40.715Z,60.64
2023-03-30T13:35:29.513Z,59.52
2023-03-30T13:38:05.725Z,61.27
2023-03-30T13:41:07.241Z,64.56
2023-03-30T13:43:49.584Z,68.90
2023-03-30T13:46:39.412Z,71.74
2023-03-30T13:49:31.427Z,76.62
2023-03-30T13:52:09.945Z,81.84
2023-03-30T13:54:41.046Z,84.37
2023-03-30T13:57:28.444Z,87.87
2023-03-30T14:00:21.510Z,86.98
2023-03-30T14:02:49.508Z,89.15
2023-03-30T14:05:27.896Z,94.13
2023-03-30T14:07:59.423Z,92.34
2023-03-30T14:10:27.662Z,97.30
2023-03-30T14:12:57.582Z,97.00
2023-03-30T14:15:37.323Z,100.00
2023-03-30T14:18:05.552Z,100.00
2023-03-30T14:20:51.957Z,100.00
2023-03-30T14:23:42.154Z,100.00
2023-03-30T14:26:22.255Z,100.00
2023-03-30T14:28:54.444Z,100.00
2023-03-30T14:31:22.625Z,100.00
2023-03-30T14:33:50.402Z,100.00
2023-03-30T14:36:20.848Z,100.00
2023-03-30T14:38:54.478Z,100.00
2023-03-30T14:41:28.137Z,100.00
2023-03-30T14:44:08.055Z,100.00
2023-03-30T14:46:48.628Z,100.00
2023-03-30T14:49:26.042Z,100.00
2023-03-30T14:52:16.602Z,100.00
2023-03-30T14:54:57.652Z,100.00
2023-03-30T14:57:30.925Z,100.00
2023-03-30T15:00:01.386Z,100.00
2023-03-30T15:02:33.384Z,100.00
2023-03-30T15:05:01.009Z,100.00
2023-03-30T15:07:33.773Z,100.00
2023-03-30T15:10:01.275Z,100.00
2023-03-30T15:12:39.956Z,100.00
2023-03-30T15:15:09.629Z,100.00
2023-03-30T15:17:39.498Z,100.00
2023-03-30T15:20:08.423Z,100.00
2023-03-30T15:22:50.305Z,100.00
2023-03-30T15:25:21.267Z,100.00
2023-03-30T15:28:20.701Z,100.00
2023-03-30T15:30:53.362Z,100.00
2023-03-30T15:33:25.266Z,100.00
2023-03-30T15:35:54.217Z,100.00
2023-03-30T15:38:34.206Z,100.00
2023-03-30T15:41:02.605Z,100.00
2023-03-30T15:43:33.610Z,100.00
2023-03-30T15:46:01.534Z,100.00
2023-03-30T15:48:42.176Z,100.00
2023-03-30T15:51:28.845Z,100.00
2023-03-30T15:54:12.900Z,100.00
2023-03-30T15:56:52.248Z,100.00
2023-03-30T15:59:22.273Z,100.00
2023-03-30T16:01:57.319Z,100.00
2023-03-30T16:04:25.425Z,100.00
2023-03-30T16:06:52.951Z,100.00
2023-03-30T16:09:20.354Z,100.00
2023-03-30T16:11:47.797Z,100.00
2023-03-30T16:14:22.951Z,100.00
2023-03-30T16:16:50.588Z,100.00
2023-03-30T16:19:20.239Z,100.00
2023-03-30T16:21:47.775Z,100.00
2023-03-30T16:24:15.112Z,100.00
2023-03-30T16:26:43.085Z,100.00
2023-03-30T16:29:22.310Z,100.00
2023-03-30T16:31:53.789Z,100.00
2023-03-30T16:34:24.346Z,100.00
2023-03-30T16:36:52.805Z,100.00
2023-03-30T16:39:23.870Z,100.00
2023-03-30T16:41:52.617Z,100.00
2023-03-30T16:44:23.095Z,100.00
2023-03-30T16:46:51.687Z,100.00
2023-03-30T16:49:25.748Z,100.00
2023-03-30T16:51:55.304Z,100.00
2023-03-30T16:54:32.088Z,100.00
2023-03-30T16:57:01.772Z,100.00
2023-03-30T16:59:31.643Z,100.00
2023-03-30T17:02:00.345Z,100.00
2023-03-30T17:04:28.086Z,100.00
2023-03-30T17:06:55.873Z,100.00
2023-03-30T17:09:23.439Z,100.00
2023-03-30T17:11:51.819Z,100.00
2023-03-30T17:14:20.974Z,100.00
2023-03-30T17:16:48.597Z,100.00
2023-03-30T17:19:16.265Z,100.00
2023-03-30T17:21:43.972Z,100.00
2023-03-30T17:24:12.767Z,100.00
2023-03-30T17:26:40.395Z,100.00
2023-03-30T17:29:07.794Z,100.00
2023-03-30T17:31:35.179Z,100.00
2023-03-30T17:34:02.647Z,100.00
2023-03-30T17:36:30.263Z,100.00
2023-03-30T17:38:59.651Z,100.00
2023-03-30T17:41:26.996Z,100.00
2023-03-30T17:43:54.371Z,100.00
2023-03-30T17:46:21.921Z,100.00
2023-03-30T17:48:51.632Z,100.00
2023-03-30T17:51:19.185Z,100.00
2023-03-30T17:53:46.421Z,100.00
2023-03-30T17:56:14.101Z,100.00
2023-03-30T17:58:41.562Z,100.00
2023-03-30T18:01:10.095Z,100.00
2023-03-30T18:03:39.777Z,100.00
2023-03-30T18:06:07.597Z,100.00
2023-03-30T18:08:36.225Z,100.00
2023-03-30T18:11:04.874Z,100.00
2023-03-30T18:13:32.461Z,100.00
2023-03-30T18:16:02.159Z,100.00
2023-03-30T18:18:30.990Z,100.00
2023-03-30T18:21:04.577Z,100.00
2023-03-30T18:23:34.572Z,100.00
2023-03-30T18:26:08.286Z,100.00
2023-03-30T18:28:40.687Z,100.00
2023-03-30T18:31:08.849Z,100.00
2023-03-30T18:33:36.426Z,100.00
2023-03-30T18:36:07.873Z,100.00
2023-03-30T18:38:35.626Z,100.00
2023-03-30T18:41:02.993Z,100.00
2023-03-30T18:43:30.831Z,100.00
2023-03-30T18:46:01.781Z,100.00
2023-03-30T18:48:30.161Z,100.00
2023-03-30T18:50:58.105Z,100.00
2023-03-30T18:53:28.358Z,100.00
2023-03-30T18:56:00.703Z,100.00
2023-03-30T18:58:33.650Z,100.00
2023-03-30T19:01:02.193Z,100.00
2023-03-30T19:03:30.269Z,100.00
2023-03-30T19:05:57.784Z,100.00
2023-03-30T19:08:26.924Z,100.00
2023-03-30T19:10:57.587Z,100.00
2023-03-30T19:13:26.849Z,100.00
2023-03-30T19:15:55.066Z,100.00
2023-03-30T19:18:22.699Z,100.00
2023-03-30T19:20:51.407Z,100.00
2023-03-30T19:23:21.917Z,100.00
2023-03-30T19:25:49.479Z,100.00
2023-03-30T19:28:17.579Z,100.00
2023-03-30T19:30:45.130Z,100.00
2023-03-30T19:33:16.859Z,100.00
2023-03-30T19:35:45.628Z,100.00
2023-03-30T19:38:14.908Z,100.00
2023-03-30T19:40:42.878Z,100.00
2023-03-30T19:43:10.927Z,100.00
2023-03-30T19:45:39.147Z,100.00
2023-03-30T19:48:06.717Z,100.00
2023-03-30T19:50:34.822Z,100.00
2023-03-30T19:53:02.283Z,100.00
2023-03-30T19:55:29.748Z,100.00
2023-03-30T19:57:57.076Z,100.00
2023-03-30T20:00:24.739Z,100.00
2023-03-30T20:02:55.198Z,100.00
2023-03-30T20:05:24.306Z,100.00
2023-03-30T20:07:51.798Z,100.00
2023-03-30T20:10:24.756Z,100.00
2023-03-30T20:12:52.912Z,100.00
2023-03-30T20:15:23.174Z,100.00
2023-03-30T20:17:58.801Z,100.00
2023-03-30T20:20:26.762Z,100.00
2023-03-30T20:22:56.520Z,100.00
2023-03-30T20:25:24.767Z,100.00
2023-03-30T20:27:52.846Z,100.00
2023-03-30T20:30:21.468Z,100.00
2023-03-30T20:33:03.906Z,100.00
2023-03-30T20:35:58.690Z,100.00
2023-03-30T20:38:26.181Z,100.00
2023-03-30T20:40:59.351Z,100.00
2023-03-30T20:43:26.990Z,100.00
2023-03-30T20:46:09.680Z,100.00
2023-03-30T20:48:40.024Z,100.00
2023-03-30T20:51:14.274Z,100.00
2023-03-30T20:53:42.509Z,100.00
2023-03-30T20:56:11.861Z,100.00
2023-03-30T20:58:40.093Z,100.00
2023-03-30T21:01:28.413Z,100.00
2023-03-30T21:03:59.149Z,100.00
2023-03-30T21:06:27.858Z,100.00
2023-03-30T21:09:01.872Z,100.00
2023-03-30T21:11:31.816Z,100.00
2023-03-30T21:13:59.245Z,100.00
2023-03-30T21:16:26.906Z,100.00
2023-03-30T21:18:54.450Z,100.00
2023-03-30T21:21:21.893Z,100.00
2023-03-30T21:23:49.327Z,100.00
2023-03-30T21:26:18.588Z,100.00
2023-03-30T21:28:46.151Z,100.00
2023-03-30T21:31:15.335Z,100.00
2023-03-30T21:33:43.931Z,100.00
2023-03-30T21:36:12.078Z,100.00
2023-03-30T21:38:39.783Z,100.00
2023-03-30T21:41:14.784Z,100.00
2023-03-30T21:43:47.390Z,100.00
2023-03-30T21:46:21.710Z,100.00
2023-03-30T21:48:53.357Z,100.00
2023-03-30T21:51:28.288Z,100.00
2023-03-30T21:53:58.082Z,100.00
2023-03-30T21:56:29.423Z,100.00
2023-03-30T21:58:58.359Z,100.00
2023-03-30T22:01:26.074Z,100.00
2023-03-30T22:03:55.452Z,100.00
2023-03-30T22:06:23.563Z,100.00
2023-03-30T22:08:50.908Z,100.00
2023-03-30T22:11:26.694Z,100.00
2023-03-30T22:13:55.383Z,100.00
2023-03-30T22:16:32.278Z,100.00
2023-03-30T22:18:59.760Z,100.00
2023-03-30T22:21:35.642Z,100.00
2023-03-30T22:24:06.901Z,100.00
2023-03-30T22:26:36.084Z,100.00
2023-03-30T22:29:04.575Z,100.00
2023-03-30T22:31:31.816Z,100.00
2023-03-30T22:33:59.228Z,100.00
2023-03-30T22:36:33.235Z,100.00
2023-03-30T22:39:01.833Z,100.00
2023-03-30T22:41:29.515Z,100.00
2023-03-30T22:43:57.981Z,100.00
2023-03-30T22:46:27.349Z,100.00
2023-03-30T22:48:57.601Z,100.00
2023-03-30T22:51:28.632Z,100.00
2023-03-30T22:53:58.412Z,100.00
2023-03-30T22:56:28.255Z,100.00
2023-03-30T22:58:56.140Z,100.00
2023-03-30T23:01:23.806Z,100.00
2023-03-30T23:03:53.160Z,100.00
2023-03-30T23:06:20.725Z,100.00
2023-03-30T23:08:48.913Z,100.00
2023-03-30T23:11:16.704Z,100.00
2023-03-30T23:13:44.117Z,100.00
2023-03-30T23:16:11.268Z,100.00
2023-03-30T23:18:39.287Z,100.00
2023-03-30T23:21:08.189Z,100.00
2023-03-30T23:23:36.973Z,100.00
2023-03-30T23:26:10.583Z,100.00
2023-03-30T23:28:41.902Z,100.00
2023-03-30T23:31:16.662Z,100.00
2023-03-30T23:33:44.416Z,100.00
2023-03-30T23:36:19.286Z,100.00
2023-03-30T23:38:47.456Z,100.00
2023-03-30T23:41:18.986Z,100.00
2023-03-30T23:43:46.989Z,100.00
2023-03-30T23:46:15.557Z,99.88
2023-03-30T23:48:43.126Z,100.00
2023-03-30T23:51:10.717Z,100.00
2023-03-30T23:53:40.279Z,100.00
2023-03-30T23:56:13.208Z,100.00
2023-03-30T23:58:41.396Z,100.00
